sensor_id;sensor_type;location;lat;lon;timestamp;pressure;altitude;pressure_sealevel;temperature;humidity
13732;BME280;6937;56.096;12.664;2023-11-19T00:00:22;100910.00;;;3.02;100.00
13732;BME280;6937;56.096;12.664;2023-11-19T00:02:49;100905.69;;;3.00;100.00
13732;BME280;6937;56.096;12.664;2023-11-19T00:05:14;100885.66;;;2.94;100.00
13732;BME280;6937;56.096;12.664;2023-11-19T00:07:40;100889.16;;;2.95;100.00
13732;BME280;6937;56.096;12.664;2023-11-19T00:10:08;100892.59;;;2.97;100.00
13732;BME280;6937;56.096;12.664;2023-11-19T00:12:46;100877.78;;;2.92;100.00
13732;BME280;6937;56.096;12.664;2023-11-19T00:15:14;100876.75;;;2.97;100.00
13732;BME280;6937;56.096;12.664;2023-11-19T00:17:45;100868.00;;;2.96;100.00
13732;BME280;6937;56.096;12.664;2023-11-19T00:20:12;100856.97;;;2.85;100.00
13732;BME280;6937;56.096;12.664;2023-11-19T00:22:37;100865.59;;;2.90;100.00
13732;BME280;6937;56.096;12.664;2023-11-19T00:25:03;100846.19;;;2.91;100.00
13732;BME280;6937;56.096;12.664;2023-11-19T00:27:29;100853.22;;;2.92;100.00
13732;BME280;6937;56.096;12.664;2023-11-19T00:29:54;100846.13;;;2.92;100.00
13732;BME280;6937;56.096;12.664;2023-11-19T00:32:20;100835.69;;;2.89;100.00
13732;BME280;6937;56.096;12.664;2023-11-19T00:34:45;100813.72;;;2.89;100.00
13732;BME280;6937;56.096;12.664;2023-11-19T00:37:13;100823.97;;;2.97;100.00
13732;BME280;6937;56.096;12.664;2023-11-19T00:39:39;100808.97;;;2.97;100.00
13732;BME280;6937;56.096;12.664;2023-11-19T00:42:04;100803.78;;;2.96;100.00
13732;BME280;6937;56.096;12.664;2023-11-19T00:44:30;100788.81;;;2.96;100.00
13732;BME280;6937;56.096;12.664;2023-11-19T00:46:55;100778.19;;;2.98;100.00
13732;BME280;6937;56.096;12.664;2023-11-19T00:49:21;100768.47;;;2.98;100.00
13732;BME280;6937;56.096;12.664;2023-11-19T00:51:46;100770.97;;;3.01;100.00
13732;BME280;6937;56.096;12.664;2023-11-19T00:54:12;100757.91;;;2.98;100.00
13732;BME280;6937;56.096;12.664;2023-11-19T00:56:37;100755.28;;;2.98;100.00
13732;BME280;6937;56.096;12.664;2023-11-19T00:59:02;100758.66;;;3.02;100.00
13732;BME280;6937;56.096;12.664;2023-11-19T01:01:29;100749.69;;;3.06;100.00
13732;BME280;6937;56.096;12.664;2023-11-19T01:03:55;100737.47;;;3.03;100.00
13732;BME280;6937;56.096;12.664;2023-11-19T01:06:29;100722.69;;;2.99;100.00
13732;BME280;6937;56.096;12.664;2023-11-19T01:08:54;100730.34;;;3.05;100.00
13732;BME280;6937;56.096;12.664;2023-11-19T01:11:22;100714.78;;;2.99;100.00
13732;BME280;6937;56.096;12.664;2023-11-19T01:13:48;100706.75;;;3.01;100.00
13732;BME280;6937;56.096;12.664;2023-11-19T01:16:14;100701.38;;;3.04;100.00
13732;BME280;6937;56.096;12.664;2023-11-19T01:18:39;100696.81;;;3.07;100.00
13732;BME280;6937;56.096;12.664;2023-11-19T01:21:05;100681.81;;;3.08;100.00
13732;BME280;6937;56.096;12.664;2023-11-19T01:23:30;100684.69;;;3.03;100.00
13732;BME280;6937;56.096;12.664;2023-11-19T01:25:56;100679.44;;;3.02;100.00
13732;BME280;6937;56.096;12.664;2023-11-19T01:28:21;100675.94;;;3.01;100.00
13732;BME280;6937;56.096;12.664;2023-11-19T01:30:46;100668.94;;;3.00;100.00
13732;BME280;6937;56.096;12.664;2023-11-19T01:33:12;100653.38;;;2.94;100.00
13732;BME280;6937;56.096;12.664;2023-11-19T01:35:37;100661.97;;;2.99;100.00
13732;BME280;6937;56.096;12.664;2023-11-19T01:38:03;100646.31;;;2.95;100.00
13732;BME280;6937;56.096;12.664;2023-11-19T01:40:28;100642.81;;;2.94;100.00
13732;BME280;6937;56.096;12.664;2023-11-19T01:42:53;100642.53;;;3.00;100.00
13732;BME280;6937;56.096;12.664;2023-11-19T01:45:28;100611.00;;;2.97;100.00
13732;BME280;6937;56.096;12.664;2023-11-19T01:48:01;100614.38;;;3.01;100.00
13732;BME280;6937;56.096;12.664;2023-11-19T01:50:30;100604.69;;;3.01;100.00
13732;BME280;6937;56.096;12.664;2023-11-19T01:52:56;100594.44;;;2.93;100.00
13732;BME280;6937;56.096;12.664;2023-11-19T01:55:27;100598.69;;;2.98;100.00
13732;BME280;6937;56.096;12.664;2023-11-19T01:57:55;100590.03;;;2.94;100.00
13732;BME280;6937;56.096;12.664;2023-11-19T02:00:23;100584.75;;;2.94;100.00
13732;BME280;6937;56.096;12.664;2023-11-19T02:02:50;100581.97;;;2.97;100.00
13732;BME280;6937;56.096;12.664;2023-11-19T02:05:17;100586.47;;;2.95;100.00
13732;BME280;6937;56.096;12.664;2023-11-19T02:07:42;100582.84;;;2.98;100.00
13732;BME280;6937;56.096;12.664;2023-11-19T02:10:08;100575.84;;;2.97;100.00
13732;BME280;6937;56.096;12.664;2023-11-19T02:12:40;100563.63;;;2.94;100.00
13732;BME280;6937;56.096;12.664;2023-11-19T02:15:09;100559.16;;;2.96;100.00
13732;BME280;6937;56.096;12.664;2023-11-19T02:17:34;100554.81;;;2.95;100.00
13732;BME280;6937;56.096;12.664;2023-11-19T02:20:00;100550.38;;;2.96;100.00
13732;BME280;6937;56.096;12.664;2023-11-19T02:22:25;100544.16;;;2.97;100.00
13732;BME280;6937;56.096;12.664;2023-11-19T02:24:54;100528.63;;;2.90;100.00
13732;BME280;6937;56.096;12.664;2023-11-19T02:30:11;100524.97;;;2.93;100.00
13732;BME280;6937;56.096;12.664;2023-11-19T02:32:41;100524.72;;;2.99;100.00
13732;BME280;6937;56.096;12.664;2023-11-19T02:35:06;100510.78;;;2.96;100.00
13732;BME280;6937;56.096;12.664;2023-11-19T02:37:34;100531.44;;;3.06;100.00
13732;BME280;6937;56.096;12.664;2023-11-19T02:39:59;100518.03;;;3.11;100.00
13732;BME280;6937;56.096;12.664;2023-11-19T02:42:35;100499.59;;;3.09;100.00
13732;BME280;6937;56.096;12.664;2023-11-19T02:45:01;100493.91;;;3.18;100.00
13732;BME280;6937;56.096;12.664;2023-11-19T02:47:26;100483.19;;;3.21;100.00
13732;BME280;6937;56.096;12.664;2023-11-19T02:49:53;100469.69;;;3.27;100.00
13732;BME280;6937;56.096;12.664;2023-11-19T02:52:19;100465.91;;;3.33;100.00
13732;BME280;6937;56.096;12.664;2023-11-19T02:54:44;100450.69;;;3.38;100.00
13732;BME280;6937;56.096;12.664;2023-11-19T02:57:10;100428.69;;;3.37;100.00
13732;BME280;6937;56.096;12.664;2023-11-19T02:59:38;100422.28;;;3.43;100.00
13732;BME280;6937;56.096;12.664;2023-11-19T03:02:10;100413.50;;;3.42;100.00
13732;BME280;6937;56.096;12.664;2023-11-19T03:04:41;100416.63;;;3.51;100.00
13732;BME280;6937;56.096;12.664;2023-11-19T03:07:08;100412.81;;;3.56;100.00
13732;BME280;6937;56.096;12.664;2023-11-19T03:09:33;100403.09;;;3.57;100.00
13732;BME280;6937;56.096;12.664;2023-11-19T03:12:00;100390.53;;;3.62;100.00
13732;BME280;6937;56.096;12.664;2023-11-19T03:14:26;100385.41;;;3.59;100.00
13732;BME280;6937;56.096;12.664;2023-11-19T03:16:51;100378.03;;;3.65;100.00
13732;BME280;6937;56.096;12.664;2023-11-19T03:19:16;100374.38;;;3.68;100.00
13732;BME280;6937;56.096;12.664;2023-11-19T03:21:42;100370.72;;;3.70;100.00
13732;BME280;6937;56.096;12.664;2023-11-19T03:24:07;100355.56;;;3.74;100.00
13732;BME280;6937;56.096;12.664;2023-11-19T03:26:34;100349.38;;;3.75;100.00
13732;BME280;6937;56.096;12.664;2023-11-19T03:28:59;100343.06;;;3.77;100.00
13732;BME280;6937;56.096;12.664;2023-11-19T03:31:25;100326.28;;;3.78;100.00
13732;BME280;6937;56.096;12.664;2023-11-19T03:33:51;100326.97;;;3.82;100.00
13732;BME280;6937;56.096;12.664;2023-11-19T03:36:16;100315.53;;;3.81;100.00
13732;BME280;6937;56.096;12.664;2023-11-19T03:38:42;100305.66;;;3.85;100.00
13732;BME280;6937;56.096;12.664;2023-11-19T03:41:14;100299.28;;;3.89;100.00
13732;BME280;6937;56.096;12.664;2023-11-19T03:43:40;100289.47;;;3.91;100.00
13732;BME280;6937;56.096;12.664;2023-11-19T03:46:35;100277.81;;;3.95;100.00
13732;BME280;6937;56.096;12.664;2023-11-19T03:49:01;100270.56;;;3.99;100.00
13732;BME280;6937;56.096;12.664;2023-11-19T03:51:27;100259.81;;;4.02;100.00
13732;BME280;6937;56.096;12.664;2023-11-19T03:53:52;100257.97;;;4.04;100.00
13732;BME280;6937;56.096;12.664;2023-11-19T03:56:17;100245.50;;;4.06;100.00
13732;BME280;6937;56.096;12.664;2023-11-19T03:58:43;100230.72;;;4.02;100.00
13732;BME280;6937;56.096;12.664;2023-11-19T04:01:12;100233.06;;;4.08;100.00
13732;BME280;6937;56.096;12.664;2023-11-19T04:03:40;100226.00;;;4.08;100.00
13732;BME280;6937;56.096;12.664;2023-11-19T04:06:06;100214.56;;;4.08;100.00
13732;BME280;6937;56.096;12.664;2023-11-19T04:08:31;100212.59;;;4.11;100.00
13732;BME280;6937;56.096;12.664;2023-11-19T04:10:56;100220.28;;;4.16;100.00
13732;BME280;6937;56.096;12.664;2023-11-19T04:13:22;100199.94;;;4.16;100.00
13732;BME280;6937;56.096;12.664;2023-11-19T04:15:50;100199.03;;;4.17;100.00
13732;BME280;6937;56.096;12.664;2023-11-19T04:18:15;100192.97;;;4.15;100.00
13732;BME280;6937;56.096;12.664;2023-11-19T04:20:41;100196.31;;;4.19;100.00
13732;BME280;6937;56.096;12.664;2023-11-19T04:23:08;100193.41;;;4.23;100.00
13732;BME280;6937;56.096;12.664;2023-11-19T04:25:35;100192.44;;;4.24;100.00
13732;BME280;6937;56.096;12.664;2023-11-19T04:28:00;100173.25;;;4.21;100.00
13732;BME280;6937;56.096;12.664;2023-11-19T04:30:25;100175.59;;;4.27;100.00
13732;BME280;6937;56.096;12.664;2023-11-19T04:32:51;100175.47;;;4.28;100.00
13732;BME280;6937;56.096;12.664;2023-11-19T04:35:17;100171.84;;;4.31;100.00
13732;BME280;6937;56.096;12.664;2023-11-19T04:37:42;100170.88;;;4.32;100.00
13732;BME280;6937;56.096;12.664;2023-11-19T04:40:07;100160.97;;;4.35;100.00
13732;BME280;6937;56.096;12.664;2023-11-19T04:42:34;100146.81;;;4.36;100.00
13732;BME280;6937;56.096;12.664;2023-11-19T04:44:59;100149.38;;;4.38;100.00
13732;BME280;6937;56.096;12.664;2023-11-19T04:47:24;100150.25;;;4.38;100.00
13732;BME280;6937;56.096;12.664;2023-11-19T04:49:49;100137.84;;;4.39;100.00
13732;BME280;6937;56.096;12.664;2023-11-19T04:52:15;100126.59;;;4.35;100.00
13732;BME280;6937;56.096;12.664;2023-11-19T04:54:43;100126.31;;;4.40;100.00
13732;BME280;6937;56.096;12.664;2023-11-19T04:57:09;100107.31;;;4.33;100.00
13732;BME280;6937;56.096;12.664;2023-11-19T04:59:36;100113.03;;;4.42;100.00
13732;BME280;6937;56.096;12.664;2023-11-19T05:02:02;100102.44;;;4.42;100.00
13732;BME280;6937;56.096;12.664;2023-11-19T05:04:27;100099.78;;;4.42;100.00
13732;BME280;6937;56.096;12.664;2023-11-19T05:06:52;100106.78;;;4.43;100.00
13732;BME280;6937;56.096;12.664;2023-11-19T05:09:18;100093.47;;;4.44;100.00
13732;BME280;6937;56.096;12.664;2023-11-19T05:11:43;100092.53;;;4.45;100.00
13732;BME280;6937;56.096;12.664;2023-11-19T05:14:09;100076.75;;;4.44;100.00
13732;BME280;6937;56.096;12.664;2023-11-19T05:16:34;100074.88;;;4.46;100.00
13732;BME280;6937;56.096;12.664;2023-11-19T05:19:00;100065.16;;;4.46;100.00
13732;BME280;6937;56.096;12.664;2023-11-19T05:21:25;100047.81;;;4.41;100.00
13732;BME280;6937;56.096;12.664;2023-11-19T05:23:51;100044.06;;;4.45;100.00
13732;BME280;6937;56.096;12.664;2023-11-19T05:26:20;100044.72;;;4.48;100.00
13732;BME280;6937;56.096;12.664;2023-11-19T05:28:47;100040.38;;;4.47;100.00
13732;BME280;6937;56.096;12.664;2023-11-19T05:31:12;100044.72;;;4.48;100.00
13732;BME280;6937;56.096;12.664;2023-11-19T05:33:38;100042.81;;;4.50;100.00
13732;BME280;6937;56.096;12.664;2023-11-19T05:36:04;100037.53;;;4.50;100.00
13732;BME280;6937;56.096;12.664;2023-11-19T05:38:30;100028.84;;;4.48;100.00
13732;BME280;6937;56.096;12.664;2023-11-19T05:40:55;100027.06;;;4.49;100.00
13732;BME280;6937;56.096;12.664;2023-11-19T05:43:21;100009.59;;;4.46;100.00
13732;BME280;6937;56.096;12.664;2023-11-19T05:45:46;100005.91;;;4.49;100.00
13732;BME280;6937;56.096;12.664;2023-11-19T05:48:12;100010.91;;;4.53;100.00
13732;BME280;6937;56.096;12.664;2023-11-19T05:50:38;100001.28;;;4.52;100.00
13732;BME280;6937;56.096;12.664;2023-11-19T05:53:04;99980.31;;;4.49;100.00
13732;BME280;6937;56.096;12.664;2023-11-19T05:55:33;99997.59;;;4.55;100.00
13732;BME280;6937;56.096;12.664;2023-11-19T05:57:59;99974.81;;;4.52;100.00
13732;BME280;6937;56.096;12.664;2023-11-19T06:00:25;99979.84;;;4.57;100.00
13732;BME280;6937;56.096;12.664;2023-11-19T06:02:51;99969.53;;;4.52;100.00
13732;BME280;6937;56.096;12.664;2023-11-19T06:05:17;99969.25;;;4.57;100.00
13732;BME280;6937;56.096;12.664;2023-11-19T06:07:43;99962.34;;;4.54;100.00
13732;BME280;6937;56.096;12.664;2023-11-19T06:10:09;99958.56;;;4.58;100.00
13732;BME280;6937;56.096;12.664;2023-11-19T06:12:35;99961.13;;;4.60;100.00
13732;BME280;6937;56.096;12.664;2023-11-19T06:15:04;99962.66;;;4.64;100.00
13732;BME280;6937;56.096;12.664;2023-11-19T06:17:30;99949.22;;;4.67;100.00
13732;BME280;6937;56.096;12.664;2023-11-19T06:19:55;99941.34;;;4.65;100.00
13732;BME280;6937;56.096;12.664;2023-11-19T06:22:21;99926.44;;;4.64;100.00
13732;BME280;6937;56.096;12.664;2023-11-19T06:24:46;99924.28;;;4.71;100.00
13732;BME280;6937;56.096;12.664;2023-11-19T06:27:11;99912.09;;;4.68;100.00
13732;BME280;6937;56.096;12.664;2023-11-19T06:29:37;99909.53;;;4.67;100.00
13732;BME280;6937;56.096;12.664;2023-11-19T06:32:02;99917.06;;;4.73;100.00
13732;BME280;6937;56.096;12.664;2023-11-19T06:34:28;99906.78;;;4.68;100.00
13732;BME280;6937;56.096;12.664;2023-11-19T06:36:53;99911.63;;;4.76;100.00
13732;BME280;6937;56.096;12.664;2023-11-19T06:39:18;99914.16;;;4.77;100.00
13732;BME280;6937;56.096;12.664;2023-11-19T06:41:46;99903.56;;;4.77;100.00
13732;BME280;6937;56.096;12.664;2023-11-19T06:44:11;99904.41;;;4.78;100.00
13732;BME280;6937;56.096;12.664;2023-11-19T06:46:37;99899.97;;;4.78;100.00
13732;BME280;6937;56.096;12.664;2023-11-19T06:49:02;99895.41;;;4.80;100.00
13732;BME280;6937;56.096;12.664;2023-11-19T06:51:27;99880.41;;;4.81;100.00
13732;BME280;6937;56.096;12.664;2023-11-19T06:53:53;99879.47;;;4.82;100.00
13732;BME280;6937;56.096;12.664;2023-11-19T06:56:23;99867.28;;;4.79;100.00
13732;BME280;6937;56.096;12.664;2023-11-19T06:58:49;99872.16;;;4.85;100.00
13732;BME280;6937;56.096;12.664;2023-11-19T07:01:18;99866.97;;;4.84;100.00
13732;BME280;6937;56.096;12.664;2023-11-19T07:03:47;99867.63;;;4.87;100.00
13732;BME280;6937;56.096;12.664;2023-11-19T07:06:13;99858.09;;;4.85;100.00
13732;BME280;6937;56.096;12.664;2023-11-19T07:08:40;99858.53;;;4.92;100.00
13732;BME280;6937;56.096;12.664;2023-11-19T07:11:06;99849.94;;;4.88;100.00
13732;BME280;6937;56.096;12.664;2023-11-19T07:13:31;99851.25;;;4.95;100.00
13732;BME280;6937;56.096;12.664;2023-11-19T07:15:57;99842.47;;;4.95;100.00
13732;BME280;6937;56.096;12.664;2023-11-19T07:18:23;99835.34;;;4.95;100.00
13732;BME280;6937;56.096;12.664;2023-11-19T07:20:49;99818.81;;;4.92;100.00
13732;BME280;6937;56.096;12.664;2023-11-19T07:23:14;99836.22;;;4.96;100.00
13732;BME280;6937;56.096;12.664;2023-11-19T07:25:43;99832.91;;;4.92;100.00
13732;BME280;6937;56.096;12.664;2023-11-19T07:28:10;99833.56;;;4.96;100.00
13732;BME280;6937;56.096;12.664;2023-11-19T07:30:35;99844.81;;;4.99;100.00
13732;BME280;6937;56.096;12.664;2023-11-19T07:33:01;99861.47;;;5.01;100.00
13732;BME280;6937;56.096;12.664;2023-11-19T07:35:29;99844.53;;;5.04;100.00
13732;BME280;6937;56.096;12.664;2023-11-19T07:37:56;99846.22;;;5.05;100.00
13732;BME280;6937;56.096;12.664;2023-11-19T07:40:21;99834.13;;;5.01;100.00
13732;BME280;6937;56.096;12.664;2023-11-19T07:42:47;99825.13;;;5.03;100.00
13732;BME280;6937;56.096;12.664;2023-11-19T07:45:12;99828.44;;;5.07;100.00
13732;BME280;6937;56.096;12.664;2023-11-19T07:47:38;99808.38;;;5.03;100.00
13732;BME280;6937;56.096;12.664;2023-11-19T07:50:05;99819.53;;;5.08;100.00
13732;BME280;6937;56.096;12.664;2023-11-19T07:52:31;99805.44;;;5.07;100.00
13732;BME280;6937;56.096;12.664;2023-11-19T07:54:56;99812.38;;;5.10;100.00
13732;BME280;6937;56.096;12.664;2023-11-19T07:57:22;99803.56;;;5.09;100.00
13732;BME280;6937;56.096;12.664;2023-11-19T07:59:49;99802.50;;;5.12;100.00
13732;BME280;6937;56.096;12.664;2023-11-19T08:02:14;99797.50;;;5.07;100.00
13732;BME280;6937;56.096;12.664;2023-11-19T08:04:39;99800.59;;;5.14;100.00
13732;BME280;6937;56.096;12.664;2023-11-19T08:07:10;99797.13;;;5.13;100.00
13732;BME280;6937;56.096;12.664;2023-11-19T08:09:35;99780.38;;;5.13;100.00
13732;BME280;6937;56.096;12.664;2023-11-19T08:12:00;99786.03;;;5.21;100.00
13732;BME280;6937;56.096;12.664;2023-11-19T08:14:26;99781.47;;;5.23;100.00
13732;BME280;6937;56.096;12.664;2023-11-19T08:16:51;99773.44;;;5.24;100.00
13732;BME280;6937;56.096;12.664;2023-11-19T08:19:16;99754.13;;;5.22;100.00
13732;BME280;6937;56.096;12.664;2023-11-19T08:21:42;99758.91;;;5.30;100.00
13732;BME280;6937;56.096;12.664;2023-11-19T08:24:07;99751.81;;;5.30;100.00
13732;BME280;6937;56.096;12.664;2023-11-19T08:26:33;99753.53;;;5.31;100.00
13732;BME280;6937;56.096;12.664;2023-11-19T08:28:58;99739.53;;;5.29;100.00
13732;BME280;6937;56.096;12.664;2023-11-19T08:31:24;99749.72;;;5.35;100.00
13732;BME280;6937;56.096;12.664;2023-11-19T08:33:50;99730.97;;;5.39;100.00
13732;BME280;6937;56.096;12.664;2023-11-19T08:36:16;99738.91;;;5.39;100.00
13732;BME280;6937;56.096;12.664;2023-11-19T08:38:42;99735.19;;;5.41;100.00
13732;BME280;6937;56.096;12.664;2023-11-19T08:41:07;99731.59;;;5.42;100.00
13732;BME280;6937;56.096;12.664;2023-11-19T08:43:33;99719.94;;;5.45;100.00
13732;BME280;6937;56.096;12.664;2023-11-19T08:45:58;99720.78;;;5.45;100.00
13732;BME280;6937;56.096;12.664;2023-11-19T08:48:23;99713.06;;;5.42;100.00
13732;BME280;6937;56.096;12.664;2023-11-19T08:50:49;99710.09;;;5.47;100.00
13732;BME280;6937;56.096;12.664;2023-11-19T08:53:15;99716.13;;;5.49;100.00
13732;BME280;6937;56.096;12.664;2023-11-19T08:55:40;99705.44;;;5.50;100.00
13732;BME280;6937;56.096;12.664;2023-11-19T08:58:05;99697.38;;;5.52;100.00
13732;BME280;6937;56.096;12.664;2023-11-19T09:00:32;99685.28;;;5.48;100.00
13732;BME280;6937;56.096;12.664;2023-11-19T09:02:57;99693.78;;;5.53;100.00
13732;BME280;6937;56.096;12.664;2023-11-19T09:05:23;99698.66;;;5.46;100.00
13732;BME280;6937;56.096;12.664;2023-11-19T09:07:48;99694.72;;;5.52;100.00
13732;BME280;6937;56.096;12.664;2023-11-19T09:10:15;99702.66;;;5.52;100.00
13732;BME280;6937;56.096;12.664;2023-11-19T09:12:41;99708.09;;;5.50;100.00
13732;BME280;6937;56.096;12.664;2023-11-19T09:15:06;99693.88;;;5.51;100.00
13732;BME280;6937;56.096;12.664;2023-11-19T09:17:32;99694.84;;;5.50;100.00
13732;BME280;6937;56.096;12.664;2023-11-19T09:19:57;99681.69;;;5.49;100.00
13732;BME280;6937;56.096;12.664;2023-11-19T09:22:22;99687.94;;;5.48;100.00
13732;BME280;6937;56.096;12.664;2023-11-19T09:24:48;99690.41;;;5.51;100.00
13732;BME280;6937;56.096;12.664;2023-11-19T09:27:14;99677.34;;;5.48;100.00
13732;BME280;6937;56.096;12.664;2023-11-19T09:29:39;99688.38;;;5.54;100.00
13732;BME280;6937;56.096;12.664;2023-11-19T09:32:05;99686.47;;;5.56;100.00
13732;BME280;6937;56.096;12.664;2023-11-19T09:34:31;99679.69;;;5.52;100.00
13732;BME280;6937;56.096;12.664;2023-11-19T09:36:57;99688.25;;;5.56;100.00
13732;BME280;6937;56.096;12.664;2023-11-19T09:39:22;99674.28;;;5.54;100.00
13732;BME280;6937;56.096;12.664;2023-11-19T09:41:47;99681.91;;;5.58;100.00
13732;BME280;6937;56.096;12.664;2023-11-19T09:44:13;99679.16;;;5.60;100.00
13732;BME280;6937;56.096;12.664;2023-11-19T09:46:41;99675.66;;;5.59;100.00
13732;BME280;6937;56.096;12.664;2023-11-19T09:49:08;99673.63;;;5.63;100.00
13732;BME280;6937;56.096;12.664;2023-11-19T09:51:35;99657.09;;;5.59;100.00
13732;BME280;6937;56.096;12.664;2023-11-19T09:54:01;99666.84;;;5.59;100.00
13732;BME280;6937;56.096;12.664;2023-11-19T09:56:28;99659.88;;;5.58;100.00
13732;BME280;6937;56.096;12.664;2023-11-19T09:58:54;99658.78;;;5.60;100.00
13732;BME280;6937;56.096;12.664;2023-11-19T10:01:20;99657.44;;;5.55;100.00
13732;BME280;6937;56.096;12.664;2023-11-19T10:03:46;99657.84;;;5.61;100.00
13732;BME280;6937;56.096;12.664;2023-11-19T10:06:13;99661.13;;;5.65;100.00
13732;BME280;6937;56.096;12.664;2023-11-19T10:08:40;99654.25;;;5.62;100.00
13732;BME280;6937;56.096;12.664;2023-11-19T10:11:07;99649.78;;;5.63;100.00
13732;BME280;6937;56.096;12.664;2023-11-19T10:13:35;99656.56;;;5.67;100.00
13732;BME280;6937;56.096;12.664;2023-11-19T10:16:04;99639.31;;;5.61;100.00
13732;BME280;6937;56.096;12.664;2023-11-19T10:18:32;99651.06;;;5.57;100.00
13732;BME280;6937;56.096;12.664;2023-11-19T10:21:03;99639.38;;;5.60;100.00
13732;BME280;6937;56.096;12.664;2023-11-19T10:23:29;99636.88;;;5.58;100.00
13732;BME280;6937;56.096;12.664;2023-11-19T10:26:02;99633.06;;;5.62;100.00
13732;BME280;6937;56.096;12.664;2023-11-19T10:28:38;99628.69;;;5.61;100.00
13732;BME280;6937;56.096;12.664;2023-11-19T10:31:05;99633.25;;;5.59;100.00
13732;BME280;6937;56.096;12.664;2023-11-19T10:33:30;99629.97;;;5.56;100.00
13732;BME280;6937;56.096;12.664;2023-11-19T10:35:57;99628.78;;;5.60;100.00
13732;BME280;6937;56.096;12.664;2023-11-19T10:38:23;99607.91;;;5.55;100.00
13732;BME280;6937;56.096;12.664;2023-11-19T10:40:50;99621.91;;;5.57;100.00
13732;BME280;6937;56.096;12.664;2023-11-19T10:43:16;99620.13;;;5.58;100.00
13732;BME280;6937;56.096;12.664;2023-11-19T10:45:42;99608.53;;;5.59;100.00
13732;BME280;6937;56.096;12.664;2023-11-19T10:48:08;99615.97;;;5.54;100.00
13732;BME280;6937;56.096;12.664;2023-11-19T10:50:34;99619.69;;;5.51;100.00
13732;BME280;6937;56.096;12.664;2023-11-19T10:53:01;99609.19;;;5.50;100.00
13732;BME280;6937;56.096;12.664;2023-11-19T10:55:29;99591.59;;;5.49;100.00
13732;BME280;6937;56.096;12.664;2023-11-19T10:58:03;99602.84;;;5.52;100.00
13732;BME280;6937;56.096;12.664;2023-11-19T11:03:24;99592.53;;;5.48;100.00
13732;BME280;6937;56.096;12.664;2023-11-19T11:05:51;99592.03;;;5.43;100.00
13732;BME280;6937;56.096;12.664;2023-11-19T11:08:17;99587.38;;;5.46;100.00
13732;BME280;6937;56.096;12.664;2023-11-19T11:10:45;99595.19;;;5.48;100.00
13732;BME280;6937;56.096;12.664;2023-11-19T11:13:13;99585.44;;;5.48;100.00
13732;BME280;6937;56.096;12.664;2023-11-19T11:15:39;99597.34;;;5.43;100.00
13732;BME280;6937;56.096;12.664;2023-11-19T11:18:08;99584.94;;;5.43;100.00
13732;BME280;6937;56.096;12.664;2023-11-19T11:20:34;99592.97;;;5.42;100.00
13732;BME280;6937;56.096;12.664;2023-11-19T11:23:21;99586.84;;;5.41;100.00
13732;BME280;6937;56.096;12.664;2023-11-19T11:37:09;99605.69;;;5.36;100.00
13732;BME280;6937;56.096;12.664;2023-11-19T11:39:36;99597.88;;;5.35;100.00
13732;BME280;6937;56.096;12.664;2023-11-19T11:47:26;99596.25;;;5.32;100.00
13732;BME280;6937;56.096;12.664;2023-11-19T11:49:52;99584.72;;;5.33;100.00
13732;BME280;6937;56.096;12.664;2023-11-19T11:52:17;99580.59;;;5.29;100.00
13732;BME280;6937;56.096;12.664;2023-11-19T11:54:44;99575.28;;;5.29;100.00
13732;BME280;6937;56.096;12.664;2023-11-19T11:57:14;99579.66;;;5.30;100.00
13732;BME280;6937;56.096;12.664;2023-11-19T12:02:11;99573.63;;;5.28;100.00
13732;BME280;6937;56.096;12.664;2023-11-19T12:04:38;99577.31;;;5.26;100.00
13732;BME280;6937;56.096;12.664;2023-11-19T12:07:17;99580.09;;;5.24;100.00
13732;BME280;6937;56.096;12.664;2023-11-19T12:09:48;99572.13;;;5.24;100.00
13732;BME280;6937;56.096;12.664;2023-11-19T12:19:59;99555.38;;;5.24;100.00
13732;BME280;6937;56.096;12.664;2023-11-19T12:22:24;99545.66;;;5.24;100.00
13732;BME280;6937;56.096;12.664;2023-11-19T12:24:51;99549.25;;;5.23;100.00
13732;BME280;6937;56.096;12.664;2023-11-19T12:27:17;99550.94;;;5.24;100.00
13732;BME280;6937;56.096;12.664;2023-11-19T12:29:43;99560.69;;;5.24;100.00
13732;BME280;6937;56.096;12.664;2023-11-19T12:32:09;99552.63;;;5.25;100.00
13732;BME280;6937;56.096;12.664;2023-11-19T12:34:34;99547.31;;;5.25;100.00
13732;BME280;6937;56.096;12.664;2023-11-19T12:37:03;99533.34;;;5.23;100.00
13732;BME280;6937;56.096;12.664;2023-11-19T12:39:32;99539.28;;;5.27;100.00
13732;BME280;6937;56.096;12.664;2023-11-19T12:41:57;99539.91;;;5.30;100.00
13732;BME280;6937;56.096;12.664;2023-11-19T12:44:25;99534.63;;;5.30;100.00
13732;BME280;6937;56.096;12.664;2023-11-19T12:47:04;99533.53;;;5.33;100.00
13732;BME280;6937;56.096;12.664;2023-11-19T12:49:31;99528.38;;;5.31;100.00
13732;BME280;6937;56.096;12.664;2023-11-19T12:51:57;99519.97;;;5.25;100.00
13732;BME280;6937;56.096;12.664;2023-11-19T12:54:36;99522.31;;;5.29;100.00
13732;BME280;6937;56.096;12.664;2023-11-19T12:57:02;99518.00;;;5.28;100.00
13732;BME280;6937;56.096;12.664;2023-11-19T12:59:28;99516.38;;;5.26;100.00
13732;BME280;6937;56.096;12.664;2023-11-19T13:01:57;99508.56;;;5.24;100.00
13732;BME280;6937;56.096;12.664;2023-11-19T13:04:27;99513.97;;;5.23;100.00
13732;BME280;6937;56.096;12.664;2023-11-19T13:06:53;99493.94;;;5.19;100.00
13732;BME280;6937;56.096;12.664;2023-11-19T13:11:48;99511.84;;;5.15;100.00
13732;BME280;6937;56.096;12.664;2023-11-19T13:14:14;99509.09;;;5.17;100.00
13732;BME280;6937;56.096;12.664;2023-11-19T13:16:39;99503.06;;;5.15;100.00
13732;BME280;6937;56.096;12.664;2023-11-19T13:19:04;99494.88;;;5.18;100.00
13732;BME280;6937;56.096;12.664;2023-11-19T13:21:31;99499.25;;;5.19;100.00
13732;BME280;6937;56.096;12.664;2023-11-19T13:23:56;99502.97;;;5.16;100.00
13732;BME280;6937;56.096;12.664;2023-11-19T13:26:22;99506.66;;;5.14;100.00